createdAt,value
2018-12-10T00:02:21.181Z,11.37
2018-12-10T00:04:49.505Z,10.62
2018-12-10T00:07:17.900Z,11.44
2018-12-10T00:09:46.205Z,10.81
2018-12-10T00:12:14.840Z,10.37
2018-12-10T00:14:43.164Z,10.51
2018-12-10T00:17:11.594Z,10.67
2018-12-10T00:19:39.866Z,10.34
2018-12-10T00:22:08.182Z,11.01
2018-12-10T00:24:36.734Z,10.30
2018-12-10T00:27:05.126Z,11.47
2018-12-10T00:29:33.427Z,9.98
2018-12-10T00:32:01.845Z,9.60
2018-12-10T00:34:30.482Z,10.33
2018-12-10T00:36:59.413Z,10.55
2018-12-10T00:39:27.734Z,10.57
2018-12-10T00:41:56.077Z,10.38
2018-12-10T00:44:24.395Z,10.07
2018-12-10T00:46:53.333Z,11.35
2018-12-10T00:49:21.609Z,10.04
2018-12-10T00:51:50.005Z,10.31
2018-12-10T00:54:18.297Z,10.53
2018-12-10T00:56:46.839Z,10.81
2018-12-10T00:59:15.085Z,10.70
2018-12-10T01:01:43.404Z,9.81
2018-12-10T01:04:12.086Z,10.16
2018-12-10T01:06:40.516Z,10.73
2018-12-10T01:09:08.954Z,10.12
2018-12-10T01:11:37.302Z,10.76
2018-12-10T01:14:05.621Z,9.65
2018-12-10T01:16:33.969Z,10.12
2018-12-10T01:19:02.246Z,10.16
2018-12-10T01:21:30.746Z,10.44
2018-12-10T01:23:59.002Z,10.57
2018-12-10T01:26:27.316Z,10.47
2018-12-10T01:28:55.820Z,10.67
2018-12-10T01:31:24.164Z,9.63
2018-12-10T01:33:52.621Z,9.76
2018-12-10T01:36:20.903Z,10.49
2018-12-10T01:38:49.250Z,10.46
2018-12-10T01:41:17.570Z,11.04
2018-12-10T01:43:45.932Z,10.86
2018-12-10T01:46:14.221Z,10.22
2018-12-10T01:48:42.547Z,9.93
2018-12-10T01:51:10.885Z,10.91
2018-12-10T01:53:39.233Z,9.87
2018-12-10T01:56:07.596Z,11.08
2018-12-10T01:58:35.892Z,9.70
2018-12-10T02:01:04.207Z,10.25
2018-12-10T02:03:32.550Z,9.59
2018-12-10T02:06:00.956Z,10.04
2018-12-10T02:08:29.329Z,10.14
2018-12-10T02:10:57.748Z,10.48
2018-12-10T02:13:26.069Z,9.55
2018-12-10T02:15:54.440Z,10.35
2018-12-10T02:18:22.768Z,9.88
2018-12-10T02:20:52.530Z,10.89
2018-12-10T02:23:21.244Z,10.96
2018-12-10T02:25:49.716Z,10.53
2018-12-10T02:28:22.153Z,10.15
2018-12-10T02:30:50.396Z,10.28
2018-12-10T02:33:18.765Z,10.83
2018-12-10T02:35:47.166Z,9.99
2018-12-10T02:38:15.656Z,10.40
2018-12-10T02:40:44.083Z,10.01
2018-12-10T02:43:12.541Z,10.58
2018-12-10T02:45:40.904Z,9.94
2018-12-10T02:48:09.169Z,10.21
2018-12-10T02:50:37.464Z,9.53
2018-12-10T02:53:05.682Z,10.56
2018-12-10T02:55:33.945Z,10.67
2018-12-10T02:58:02.277Z,10.15
2018-12-10T03:00:30.605Z,10.63
2018-12-10T03:03:00.938Z,11.03
2018-12-10T03:05:29.429Z,9.34
2018-12-10T03:07:57.896Z,10.21
2018-12-10T03:10:26.353Z,10.11
2018-12-10T03:12:54.702Z,10.67
2018-12-10T03:15:23.131Z,10.12
2018-12-10T03:17:51.566Z,10.38
2018-12-10T03:20:19.876Z,10.09
2018-12-10T03:22:48.245Z,9.47
2018-12-10T03:25:16.732Z,10.46
2018-12-10T03:27:45.002Z,10.42
2018-12-10T03:30:13.460Z,11.44
2018-12-10T03:32:41.837Z,10.10
2018-12-10T03:35:10.166Z,9.52
2018-12-10T03:37:38.510Z,10.34
2018-12-10T03:40:06.863Z,9.62
2018-12-10T03:42:35.139Z,9.28
2018-12-10T03:45:03.411Z,9.39
2018-12-10T03:47:31.776Z,10.62
2018-12-10T03:50:00.156Z,9.19
2018-12-10T03:52:28.453Z,9.83
2018-12-10T03:54:56.732Z,9.42
2018-12-10T03:57:25.130Z,9.28
2018-12-10T03:59:53.622Z,9.98
2018-12-10T04:02:21.929Z,10.74
2018-12-10T04:04:53.139Z,10.04
2018-12-10T04:07:25.760Z,10.17
2018-12-10T04:09:54.086Z,9.39
2018-12-10T04:12:22.384Z,9.82
2018-12-10T04:14:50.807Z,9.56
2018-12-10T04:17:19.125Z,9.26
2018-12-10T04:19:47.617Z,9.27
2018-12-10T04:22:15.954Z,10.14
2018-12-10T04:24:45.732Z,9.61
2018-12-10T04:27:14.303Z,9.43
2018-12-10T04:29:42.570Z,9.82
2018-12-10T04:32:11.069Z,10.10
2018-12-10T04:34:39.355Z,9.43
2018-12-10T04:37:07.856Z,9.55
2018-12-10T04:39:36.320Z,10.32
2018-12-10T04:42:04.851Z,9.13
2018-12-10T04:44:33.394Z,9.40
2018-12-10T04:47:02.052Z,10.02
2018-12-10T04:49:30.615Z,10.14
2018-12-10T04:51:58.889Z,9.58
2018-12-10T04:54:27.292Z,9.54
2018-12-10T04:56:55.697Z,9.94
2018-12-10T04:59:24.058Z,9.32
2018-12-10T05:01:52.402Z,9.04
2018-12-10T05:04:20.809Z,9.08
2018-12-10T05:06:49.068Z,9.21
2018-12-10T05:09:17.560Z,9.80
2018-12-10T05:11:46.135Z,10.26
2018-12-10T05:14:14.659Z,9.05
2018-12-10T05:16:42.878Z,9.02
2018-12-10T05:19:11.185Z,9.37
2018-12-10T05:21:39.580Z,9.29
2018-12-10T05:24:07.943Z,8.68
2018-12-10T05:26:36.213Z,9.38
2018-12-10T05:29:04.749Z,9.07
2018-12-10T05:31:33.086Z,8.95
2018-12-10T05:34:01.395Z,9.03
2018-12-10T05:36:29.728Z,9.34
2018-12-10T05:38:58.022Z,9.39
2018-12-10T05:41:26.455Z,10.13
2018-12-10T05:43:54.852Z,9.50
2018-12-10T05:46:23.240Z,8.65
2018-12-10T05:48:51.583Z,9.23
2018-12-10T05:51:20.095Z,8.37
2018-12-10T05:53:48.410Z,9.47
2018-12-10T05:56:16.850Z,9.84
2018-12-10T05:58:45.412Z,9.84
2018-12-10T06:01:13.664Z,10.13
2018-12-10T06:03:41.998Z,9.32
2018-12-10T06:06:10.481Z,9.61
2018-12-10T06:08:38.751Z,10.32
2018-12-10T06:11:07.242Z,9.23
2018-12-10T06:13:35.582Z,8.89
2018-12-10T06:16:03.976Z,9.68
2018-12-10T06:18:32.556Z,8.94
2018-12-10T06:21:00.916Z,9.52
2018-12-10T06:23:29.191Z,9.35
2018-12-10T06:25:57.513Z,8.77
2018-12-10T06:28:26.366Z,9.06
2018-12-10T06:30:54.673Z,8.97
2018-12-10T06:33:22.997Z,8.20
2018-12-10T06:35:51.398Z,8.88
2018-12-10T06:38:19.707Z,8.44
2018-12-10T06:40:48.056Z,9.06
2018-12-10T06:43:16.362Z,8.11
2018-12-10T06:45:44.634Z,8.16
2018-12-10T06:48:12.910Z,8.92
2018-12-10T06:50:41.196Z,8.90
2018-12-10T06:53:09.662Z,8.95
2018-12-10T06:55:37.922Z,8.77
2018-12-10T06:58:06.889Z,8.39
2018-12-10T07:00:35.224Z,9.06
2018-12-10T07:03:04.132Z,9.05
2018-12-10T07:05:32.526Z,8.66
2018-12-10T07:08:00.750Z,8.64
2018-12-10T07:10:29.059Z,9.29
2018-12-10T07:12:57.356Z,8.91
2018-12-10T07:15:25.695Z,8.79
2018-12-10T07:17:54.027Z,9.24
2018-12-10T07:20:22.319Z,9.40
2018-12-10T07:22:50.703Z,8.59
2018-12-10T07:25:19.002Z,9.40
2018-12-10T07:27:47.315Z,9.27
2018-12-10T07:30:15.744Z,9.77
2018-12-10T07:32:44.035Z,9.75
2018-12-10T07:35:12.314Z,9.54
2018-12-10T07:37:40.673Z,9.52
2018-12-10T07:40:08.962Z,9.22
2018-12-10T07:42:37.241Z,9.64
2018-12-10T07:45:06.328Z,9.35
2018-12-10T07:47:34.723Z,9.27
2018-12-10T07:50:03.246Z,10.62
2018-12-10T07:52:31.689Z,9.97
2018-12-10T07:54:59.974Z,9.94
2018-12-10T07:57:28.277Z,9.88
2018-12-10T07:59:56.675Z,10.01
2018-12-10T08:02:24.968Z,9.92
2018-12-10T08:04:53.303Z,10.03
2018-12-10T08:07:21.715Z,9.47
2018-12-10T08:09:50.086Z,9.33
2018-12-10T08:12:18.467Z,10.03
2018-12-10T08:14:46.762Z,9.11
2018-12-10T08:17:15.093Z,9.83
2018-12-10T08:19:43.994Z,9.80
2018-12-10T08:22:12.270Z,10.66
2018-12-10T08:24:40.584Z,9.89
2018-12-10T08:27:09.631Z,9.93
2018-12-10T08:29:38.079Z,9.79
2018-12-10T08:32:06.384Z,10.84
2018-12-10T08:37:05.048Z,10.02
2018-12-10T08:39:14.916Z,10.34
2018-12-10T08:39:33.462Z,9.76
2018-12-10T08:42:01.729Z,8.87
2018-12-10T08:44:30.151Z,10.95
2018-12-10T08:46:58.537Z,10.58
2018-12-10T08:49:26.844Z,10.24
2018-12-10T08:51:55.177Z,9.81
2018-12-10T08:54:24.615Z,9.66
2018-12-10T08:56:52.914Z,9.83
2018-12-10T08:59:21.475Z,9.81
2018-12-10T09:01:49.784Z,10.93
2018-12-10T09:04:18.083Z,10.05
2018-12-10T09:06:46.552Z,9.64
2018-12-10T09:09:14.899Z,9.80
2018-12-10T09:11:43.221Z,10.38
2018-12-10T09:14:11.600Z,10.33
2018-12-10T09:16:39.925Z,10.27
2018-12-10T09:19:08.265Z,10.19
2018-12-10T09:21:36.611Z,10.28
2018-12-10T09:24:04.913Z,9.83
2018-12-10T09:26:33.257Z,10.34
2018-12-10T09:29:01.700Z,10.31
2018-12-10T09:31:30.222Z,10.30
2018-12-10T09:33:58.637Z,10.96
2018-12-10T09:36:26.996Z,10.21
2018-12-10T09:38:55.261Z,10.28
2018-12-10T09:41:24.162Z,10.22
2018-12-10T09:43:52.915Z,10.42
2018-12-10T09:46:27.437Z,11.10
2018-12-10T09:48:51.519Z,10.08
2018-12-10T09:51:20.008Z,10.30
2018-12-10T09:53:48.338Z,11.45
2018-12-10T09:56:16.763Z,10.51
2018-12-10T09:58:45.208Z,9.89
2018-12-10T10:01:13.653Z,11.10
2018-12-10T10:03:41.986Z,10.22
2018-12-10T10:06:10.521Z,9.97
2018-12-10T10:08:38.826Z,10.44
2018-12-10T10:11:07.152Z,9.94
2018-12-10T10:13:35.410Z,10.56
2018-12-10T10:16:03.752Z,10.69
2018-12-10T10:18:32.091Z,10.08
2018-12-10T10:21:00.507Z,10.51
2018-12-10T10:23:28.808Z,9.69
2018-12-10T10:25:57.174Z,10.53
2018-12-10T10:28:25.770Z,9.93
2018-12-10T10:30:54.080Z,10.08
2018-12-10T10:33:22.447Z,9.69
2018-12-10T10:35:50.738Z,10.20
2018-12-10T10:38:19.035Z,10.74
2018-12-10T10:40:47.326Z,10.84
2018-12-10T10:43:15.765Z,10.17
2018-12-10T10:45:44.182Z,11.26
2018-12-10T10:48:12.467Z,11.16
2018-12-10T10:50:40.756Z,10.47
2018-12-10T10:53:09.095Z,9.98
2018-12-10T10:55:37.625Z,9.84
2018-12-10T10:58:06.140Z,10.27
2018-12-10T11:00:39.974Z,10.59
2018-12-10T11:03:15.491Z,10.15
2018-12-10T11:05:43.952Z,11.07
2018-12-10T11:08:12.228Z,10.81
2018-12-10T11:10:41.182Z,10.59
2018-12-10T11:13:09.733Z,11.21
2018-12-10T11:15:38.306Z,10.78
2018-12-10T11:18:07.810Z,11.20
2018-12-10T11:20:37.157Z,10.98
2018-12-10T11:23:05.601Z,10.38
2018-12-10T11:25:36.182Z,10.50
2018-12-10T11:28:07.851Z,9.91
2018-12-10T11:30:36.296Z,11.00
2018-12-10T11:33:04.744Z,10.67
2018-12-10T11:35:33.037Z,10.85
2018-12-10T11:38:01.400Z,9.95
2018-12-10T11:40:29.797Z,11.11
2018-12-10T11:42:58.086Z,11.56
2018-12-10T11:45:27.590Z,11.17
2018-12-10T11:47:55.990Z,9.90
2018-12-10T11:50:24.414Z,10.69
2018-12-10T11:52:53.216Z,10.10
2018-12-10T11:55:21.471Z,10.10
2018-12-10T11:57:49.732Z,9.73
2018-12-10T12:00:18.002Z,9.44
2018-12-10T12:02:46.246Z,9.70
2018-12-10T12:05:14.568Z,10.91
2018-12-10T12:07:42.857Z,11.50
2018-12-10T12:10:11.373Z,10.43
2018-12-10T12:12:39.878Z,11.00
2018-12-10T12:15:08.337Z,10.61
2018-12-10T12:17:37.373Z,10.80
2018-12-10T12:20:07.656Z,10.43
2018-12-10T12:22:35.943Z,11.66
2018-12-10T12:25:04.550Z,10.52
2018-12-10T12:27:32.794Z,9.58
2018-12-10T12:30:01.296Z,11.46
2018-12-10T12:32:29.717Z,11.49
2018-12-10T12:34:58.042Z,10.15
2018-12-10T12:37:26.303Z,10.10
2018-12-10T12:39:54.625Z,10.68
2018-12-10T12:42:22.931Z,10.53
2018-12-10T12:44:51.207Z,10.18
2018-12-10T12:47:19.603Z,10.50
2018-12-10T12:49:47.978Z,11.09
2018-12-10T12:52:16.481Z,10.64
2018-12-10T12:54:44.779Z,10.69
2018-12-10T12:57:13.131Z,10.28
2018-12-10T12:59:41.494Z,11.27
2018-12-10T13:02:09.740Z,11.49
2018-12-10T13:04:38.045Z,11.03
2018-12-10T13:07:06.285Z,11.26
2018-12-10T13:09:34.563Z,11.65
2018-12-10T13:12:02.852Z,10.86
2018-12-10T13:14:31.159Z,11.42
2018-12-10T13:16:59.772Z,12.01
2018-12-10T13:19:29.702Z,10.58
2018-12-10T13:21:58.398Z,10.45
2018-12-10T13:24:26.645Z,10.67
2018-12-10T13:26:54.969Z,10.64
2018-12-10T13:29:31.041Z,12.35
2018-12-10T13:31:54.080Z,13.36
2018-12-10T13:34:22.365Z,14.30
2018-12-10T13:36:50.802Z,16.06
2018-12-10T13:39:19.161Z,15.12
2018-12-10T13:41:47.637Z,12.79
2018-12-10T13:44:16.082Z,13.99
2018-12-10T13:46:44.396Z,13.66
2018-12-10T13:49:12.652Z,13.41
2018-12-10T13:51:41.065Z,14.35
2018-12-10T13:54:09.686Z,14.90
2018-12-10T13:56:38.060Z,14.53
2018-12-10T13:59:06.664Z,13.43
2018-12-10T14:01:34.977Z,13.55
2018-12-10T14:04:07.318Z,14.77
2018-12-10T14:06:35.728Z,14.22
2018-12-10T14:09:08.009Z,13.74
2018-12-10T14:11:35.029Z,15.09
2018-12-10T14:14:03.534Z,13.35
2018-12-10T14:16:31.891Z,12.91
2018-12-10T14:19:00.291Z,12.95
2018-12-10T14:21:28.573Z,12.04
2018-12-10T14:23:57.130Z,12.48
2018-12-10T14:26:25.638Z,12.22
2018-12-10T14:28:54.039Z,12.89
2018-12-10T14:31:27.255Z,12.66
2018-12-10T14:33:52.777Z,11.41
2018-12-10T14:36:21.050Z,11.96
2018-12-10T14:38:49.356Z,11.75
2018-12-10T14:41:17.741Z,12.04
2018-12-10T14:43:46.178Z,12.21
2018-12-10T14:46:14.517Z,11.88
2018-12-10T14:48:42.775Z,11.42
2018-12-10T14:51:11.251Z,11.71
2018-12-10T14:53:39.566Z,11.26
2018-12-10T14:56:07.937Z,12.06
2018-12-10T14:58:36.457Z,11.75
2018-12-10T15:01:04.817Z,11.42
2018-12-10T15:03:33.133Z,11.69
2018-12-10T15:06:01.430Z,12.04
2018-12-10T15:08:29.790Z,10.64
2018-12-10T15:10:58.167Z,11.13
2018-12-10T15:13:26.467Z,10.43
2018-12-10T15:15:54.973Z,10.56
2018-12-10T15:18:23.310Z,10.21
2018-12-10T15:20:51.610Z,10.36
2018-12-10T15:23:20.055Z,10.65
2018-12-10T15:25:48.460Z,10.27
2018-12-10T15:28:16.916Z,10.64
2018-12-10T15:30:45.374Z,10.61
2018-12-10T15:33:13.735Z,10.33
2018-12-10T15:35:42.152Z,10.72
2018-12-10T15:38:10.511Z,10.11
2018-12-10T15:40:38.854Z,11.30
2018-12-10T15:43:07.216Z,10.45
2018-12-10T15:45:35.483Z,10.70
2018-12-10T15:48:03.758Z,10.25
2018-12-10T15:50:32.279Z,9.55
2018-12-10T15:53:00.630Z,9.81
2018-12-10T15:55:29.036Z,9.98
2018-12-10T15:57:57.382Z,10.16
2018-12-10T16:00:25.878Z,10.85
2018-12-10T16:02:54.464Z,10.56
2018-12-10T16:05:22.960Z,10.56
2018-12-10T16:07:52.828Z,9.93
2018-12-10T16:10:25.043Z,9.94
2018-12-10T16:12:53.780Z,9.90
2018-12-10T16:15:22.339Z,10.03
2018-12-10T16:17:51.030Z,9.76
2018-12-10T16:20:27.298Z,10.59
2018-12-10T16:22:56.861Z,11.13
2018-12-10T16:25:29.102Z,10.50
2018-12-10T16:28:00.840Z,10.71
2018-12-10T16:30:32.218Z,10.73
2018-12-10T16:33:05.061Z,11.57
2018-12-10T16:35:36.275Z,11.09
2018-12-10T16:38:06.806Z,11.56
2018-12-10T16:40:38.599Z,10.71
2018-12-10T16:43:08.449Z,10.36
2018-12-10T16:45:38.175Z,10.74
2018-12-10T16:48:09.183Z,10.42
2018-12-10T16:50:38.811Z,10.65
2018-12-10T16:53:07.401Z,10.75
2018-12-10T16:55:36.435Z,10.69
2018-12-10T16:58:05.602Z,9.95
2018-12-10T17:00:36.814Z,10.27
2018-12-10T17:03:06.293Z,10.07
2018-12-10T17:05:36.464Z,10.05
2018-12-10T17:08:05.105Z,10.48
2018-12-10T17:10:35.178Z,10.45
2018-12-10T17:13:05.328Z,9.90
2018-12-10T17:15:35.145Z,10.15
2018-12-10T17:18:05.311Z,10.55
2018-12-10T17:20:35.867Z,10.60
2018-12-10T17:23:05.419Z,10.03
2018-12-10T17:25:38.312Z,10.50
2018-12-10T17:28:07.891Z,10.69
2018-12-10T17:30:36.682Z,10.00
2018-12-10T17:33:09.747Z,9.94
2018-12-10T17:35:39.796Z,9.90
2018-12-10T17:38:08.768Z,10.26
2018-12-10T17:40:40.492Z,10.15
2018-12-10T17:43:10.298Z,10.33
2018-12-10T17:45:38.970Z,10.16
2018-12-10T17:48:07.750Z,10.63
2018-12-10T17:50:36.410Z,9.81
2018-12-10T17:53:05.467Z,10.42
2018-12-10T17:55:34.489Z,10.25
2018-12-10T17:58:04.694Z,9.99
2018-12-10T18:00:35.858Z,10.71
2018-12-10T18:03:06.522Z,10.91
2018-12-10T18:05:37.369Z,10.08
2018-12-10T18:08:06.892Z,9.47
2018-12-10T18:10:35.836Z,9.07
2018-12-10T18:13:05.565Z,9.83
2018-12-10T18:15:36.143Z,10.41
2018-12-10T18:18:06.093Z,10.02
2018-12-10T18:20:34.739Z,9.41
2018-12-10T18:23:04.933Z,9.41
2018-12-10T18:25:33.929Z,9.75
2018-12-10T18:28:05.033Z,10.45
2018-12-10T18:30:34.592Z,10.23
2018-12-10T18:33:05.665Z,10.09
2018-12-10T18:35:36.972Z,9.59
2018-12-10T18:38:06.199Z,9.35
2018-12-10T18:40:35.398Z,9.85
2018-12-10T18:43:04.370Z,8.97
2018-12-10T18:45:35.353Z,9.42
2018-12-10T18:48:05.311Z,8.22
2018-12-10T18:50:35.196Z,7.97
2018-12-10T18:53:04.104Z,7.37
2018-12-10T18:55:34.307Z,7.63
2018-12-10T18:58:05.755Z,7.27
2018-12-10T19:00:35.243Z,7.47
2018-12-10T19:03:03.868Z,7.42
2018-12-10T19:05:33.027Z,7.75
2018-12-10T19:08:01.675Z,7.68
2018-12-10T19:10:31.369Z,8.51
2018-12-10T19:13:00.524Z,8.06
2018-12-10T19:15:30.512Z,8.37
2018-12-10T19:18:01.481Z,8.63
2018-12-10T19:20:32.068Z,8.52
2018-12-10T19:23:04.082Z,8.32
2018-12-10T19:25:34.042Z,7.95
2018-12-10T19:28:04.098Z,7.46
2018-12-10T19:30:34.982Z,7.85
2018-12-10T19:33:05.134Z,7.58
2018-12-10T19:35:33.949Z,8.55
2018-12-10T19:38:02.706Z,7.84
2018-12-10T19:40:31.900Z,8.63
2018-12-10T19:43:00.783Z,8.19
2018-12-10T19:45:30.354Z,8.77
2018-12-10T19:47:59.601Z,8.70
2018-12-10T19:50:30.277Z,8.63
2018-12-10T19:52:58.704Z,9.06
2018-12-10T19:55:29.139Z,8.51
2018-12-10T19:57:57.769Z,8.02
2018-12-10T20:00:26.392Z,8.75
2018-12-10T20:02:56.032Z,9.29
2018-12-10T20:05:31.077Z,7.70
2018-12-10T20:08:01.716Z,8.68
2018-12-10T20:10:30.259Z,8.87
2018-12-10T20:12:59.150Z,8.83
2018-12-10T20:15:28.176Z,8.05
2018-12-10T20:17:57.351Z,8.09
2018-12-10T20:20:26.023Z,7.48
2018-12-10T20:22:54.645Z,7.35
2018-12-10T20:25:23.164Z,7.64
2018-12-10T20:27:52.599Z,7.27
2018-12-10T20:30:21.511Z,7.35
2018-12-10T20:32:50.810Z,7.32
2018-12-10T20:35:20.328Z,7.96
2018-12-10T20:37:48.784Z,7.22
2018-12-10T20:40:17.649Z,7.73
2018-12-10T20:42:47.444Z,7.51
2018-12-10T20:45:16.104Z,7.55
2018-12-10T20:47:45.935Z,7.33
2018-12-10T20:50:14.672Z,7.69
2018-12-10T20:52:45.915Z,7.38
2018-12-10T20:55:14.310Z,8.24
2018-12-10T20:57:42.764Z,7.77
2018-12-10T21:00:11.466Z,7.42
2018-12-10T21:02:39.821Z,7.53
2018-12-10T21:05:08.210Z,8.14
2018-12-10T21:07:36.582Z,8.25
2018-12-10T21:10:05.685Z,7.36
2018-12-10T21:12:33.960Z,6.96
2018-12-10T21:15:02.319Z,8.02
2018-12-10T21:17:30.807Z,8.27
2018-12-10T21:19:59.067Z,7.84
2018-12-10T21:22:27.382Z,7.45
2018-12-10T21:24:57.494Z,7.58
2018-12-10T21:27:27.110Z,7.76
2018-12-10T21:29:55.698Z,7.25
2018-12-10T21:32:24.145Z,7.98
2018-12-10T21:34:52.615Z,7.69
2018-12-10T21:37:21.011Z,7.89
2018-12-10T21:39:49.483Z,7.94
2018-12-10T21:42:20.062Z,7.46
2018-12-10T21:44:53.545Z,8.34
2018-12-10T21:47:22.113Z,8.67
2018-12-10T21:49:50.897Z,8.68
2018-12-10T21:52:19.182Z,8.61
2018-12-10T21:54:47.944Z,8.62
2018-12-10T21:57:16.391Z,8.04
2018-12-10T21:59:44.749Z,7.57
2018-12-10T22:02:15.034Z,8.14
2018-12-10T22:04:43.489Z,7.85
2018-12-10T22:07:11.952Z,8.34
2018-12-10T22:09:40.247Z,8.29
2018-12-10T22:12:08.884Z,7.60
2018-12-10T22:14:40.441Z,8.05
2018-12-10T22:17:08.845Z,8.15
2018-12-10T22:19:37.158Z,8.88
2018-12-10T22:22:05.545Z,8.69
2018-12-10T22:24:33.826Z,8.61
2018-12-10T22:27:02.175Z,8.26
2018-12-10T22:29:31.510Z,7.58
2018-12-10T22:31:59.792Z,8.31
2018-12-10T22:34:28.089Z,7.73
2018-12-10T22:36:57.828Z,7.17
2018-12-10T22:39:26.613Z,7.74
2018-12-10T22:41:54.904Z,8.53
2018-12-10T22:44:23.221Z,7.46
2018-12-10T22:46:51.568Z,7.83
2018-12-10T22:49:20.053Z,7.59
2018-12-10T22:51:48.325Z,7.92
2018-12-10T22:54:16.634Z,7.79
2018-12-10T22:56:44.897Z,8.03
2018-12-10T22:59:13.174Z,8.60
2018-12-10T23:01:41.492Z,8.08
2018-12-10T23:04:12.173Z,8.29
2018-12-10T23:06:40.446Z,8.20
2018-12-10T23:09:08.932Z,8.44
2018-12-10T23:11:37.693Z,8.51
2018-12-10T23:14:06.127Z,8.24
2018-12-10T23:16:34.379Z,8.34
2018-12-10T23:19:02.771Z,8.26
2018-12-10T23:21:31.103Z,8.34
2018-12-10T23:23:59.534Z,8.20
2018-12-10T23:26:27.834Z,7.71
2018-12-10T23:28:56.207Z,8.59
2018-12-10T23:31:24.432Z,7.90
2018-12-10T23:33:53.043Z,8.34
2018-12-10T23:36:21.303Z,8.67
2018-12-10T23:38:49.732Z,8.39
2018-12-10T23:41:18.049Z,8.98
2018-12-10T23:43:46.602Z,9.01
2018-12-10T23:46:15.018Z,8.73
2018-12-10T23:48:43.268Z,9.48
2018-12-10T23:51:11.688Z,9.26
2018-12-10T23:53:40.071Z,9.75
2018-12-10T23:56:08.369Z,10.02
2018-12-10T23:58:36.834Z,9.92
